Time;durP1;ratioP1;P1;durP2;ratioP2;P2;SDS_P1;SDS_P2;PMS_P1;PMS_P2;Temp;Humidity;BMP_temperature;BMP_pressure;BME280_temperature;BME280_humidity;BME280_pressure;Samples;Min_cycle;Max_cycle;Signal;HPM_P1;HPM_P2
2023/08/05 00:00:20;;;;;;;10.13;2.73;;;17.30;35.30;;;;;;5002902;28;20843;-63
2023/08/05 00:02:47;;;;;;;5.40;2.03;;;17.30;35.30;;;;;;5006380;28;21318;-63
2023/08/05 00:05:14;;;;;;;7.20;2.27;;;17.30;35.20;;;;;;5003687;28;20468;-63
2023/08/05 00:07:42;;;;;;;4.53;2.13;;;17.30;35.20;;;;;;5005690;28;20499;-63
2023/08/05 00:10:09;;;;;;;5.90;2.10;;;17.30;35.20;;;;;;5001229;28;20552;-63
2023/08/05 00:12:36;;;;;;;4.60;2.20;;;17.20;35.10;;;;;;5003992;28;20468;-64
2023/08/05 00:15:03;;;;;;;7.37;3.03;;;17.30;35.20;;;;;;5008528;28;20464;-63
2023/08/05 00:17:30;;;;;;;7.20;2.40;;;17.20;35.20;;;;;;5004667;28;21024;-63
2023/08/05 00:19:57;;;;;;;5.17;2.30;;;17.20;35.10;;;;;;5010291;28;20534;-63
2023/08/05 00:22:23;;;;;;;5.87;2.90;;;17.10;35.30;;;;;;5005563;28;20464;-63
2023/08/05 00:24:51;;;;;;;9.50;2.27;;;17.10;35.40;;;;;;5006822;28;20488;-63
2023/08/05 00:27:18;;;;;;;5.07;2.50;;;17.10;35.50;;;;;;5003722;28;20483;-64
2023/08/05 00:29:46;;;;;;;7.10;2.50;;;17.00;35.50;;;;;;5005384;28;20480;-64
2023/08/05 00:32:12;;;;;;;7.83;3.30;;;17.00;35.60;;;;;;4998704;28;20567;-64
2023/08/05 00:34:39;;;;;;;6.30;3.20;;;17.00;35.70;;;;;;5007825;28;20479;-64
2023/08/05 00:37:06;;;;;;;5.30;3.17;;;17.00;35.60;;;;;;5004791;28;20491;-64
2023/08/05 00:39:33;;;;;;;5.80;3.40;;;16.90;35.70;;;;;;5003817;28;20829;-64
2023/08/05 00:42:01;;;;;;;8.20;3.47;;;16.90;35.70;;;;;;5004704;28;21023;-64
2023/08/05 00:44:28;;;;;;;7.37;2.93;;;16.90;35.70;;;;;;5010081;28;20479;-64
2023/08/05 00:46:54;;;;;;;6.10;3.03;;;16.90;35.90;;;;;;5006088;28;20484;-63
2023/08/05 00:49:21;;;;;;;9.77;4.30;;;16.90;36.00;;;;;;5007910;28;20965;-63
2023/08/05 00:51:49;;;;;;;7.23;3.00;;;16.90;36.00;;;;;;5012503;28;20488;-64
2023/08/05 00:54:16;;;;;;;6.27;2.90;;;16.90;36.30;;;;;;5005720;28;20825;-64
2023/08/05 00:56:43;;;;;;;6.13;3.50;;;16.90;36.30;;;;;;5007696;28;20455;-63
2023/08/05 00:59:12;;;;;;;8.60;3.30;;;16.90;36.30;;;;;;5010108;28;20467;-64
2023/08/05 01:01:39;;;;;;;6.83;3.87;;;16.90;36.40;;;;;;5010252;28;20483;-64
2023/08/05 01:04:06;;;;;;;7.30;3.33;;;16.90;36.60;;;;;;5010667;28;20483;-64
2023/08/05 01:06:35;;;;;;;5.40;3.30;;;16.90;36.60;;;;;;5009620;28;20467;-64
2023/08/05 01:09:02;;;;;;;7.67;3.90;;;16.90;36.60;;;;;;5010313;28;20464;-64
2023/08/05 01:11:29;;;;;;;5.50;3.33;;;16.90;36.70;;;;;;5007921;28;20843;-64
2023/08/05 01:13:56;;;;;;;6.60;4.00;;;16.90;36.70;;;;;;5004489;28;20487;-64
2023/08/05 01:16:24;;;;;;;5.87;3.60;;;16.90;36.80;;;;;;5016537;28;20467;-64
2023/08/05 01:18:52;;;;;;;6.40;4.30;;;17.00;36.70;;;;;;5010739;28;20484;-63
2023/08/05 01:21:26;;;;;;;6.40;3.80;;;17.00;36.60;;;;;;5007037;28;20474;-64
2023/08/05 01:24:01;;;;;;;8.80;4.30;;;17.00;36.70;;;;;;5003543;28;20480;-63
2023/08/05 01:26:29;;;;;;;8.13;4.00;;;17.00;36.80;;;;;;5008765;28;20463;-63
2023/08/05 01:28:56;;;;;;;7.60;4.00;;;17.00;36.80;;;;;;5007555;28;20487;-64
2023/08/05 01:31:24;;;;;;;6.90;4.20;;;17.00;36.70;;;;;;5004089;28;20484;-63
2023/08/05 01:33:51;;;;;;;7.10;4.97;;;17.00;36.70;;;;;;5003940;28;20459;-64
2023/08/05 01:36:22;;;;;;;6.17;4.27;;;17.00;36.60;;;;;;5008811;28;20516;-63
2023/08/05 01:38:48;;;;;;;12.53;5.10;;;17.10;36.70;;;;;;5001447;28;20492;-64
2023/08/05 01:41:15;;;;;;;9.57;4.80;;;17.00;36.60;;;;;;5004959;28;20471;-64
2023/08/05 01:43:43;;;;;;;7.07;4.20;;;17.10;36.60;;;;;;5008222;28;20479;-63
2023/08/05 01:46:10;;;;;;;7.10;5.00;;;17.10;36.80;;;;;;5009958;28;20460;-63
2023/08/05 01:48:37;;;;;;;8.30;5.27;;;17.10;36.80;;;;;;5006445;28;20857;-64
2023/08/05 01:51:04;;;;;;;10.00;5.07;;;17.10;36.90;;;;;;5007889;28;21202;-64
2023/08/05 01:53:31;;;;;;;8.50;5.43;;;17.10;36.90;;;;;;5004432;28;20464;-64
2023/08/05 01:55:57;;;;;;;7.10;4.50;;;17.10;36.80;;;;;;5009932;28;20467;-64
2023/08/05 01:58:24;;;;;;;7.87;5.37;;;17.10;37.00;;;;;;5007159;28;20488;-63
2023/08/05 02:00:52;;;;;;;8.80;5.20;;;17.10;36.80;;;;;;5005101;28;20476;-64
2023/08/05 02:03:19;;;;;;;8.33;5.60;;;17.10;36.50;;;;;;5004186;28;20478;-64
2023/08/05 02:05:46;;;;;;;9.47;5.63;;;17.20;36.60;;;;;;5006702;28;20463;-64
2023/08/05 02:08:13;;;;;;;10.90;6.50;;;17.20;36.60;;;;;;5001308;28;20483;-63
2023/08/05 02:10:41;;;;;;;8.43;5.47;;;17.20;36.70;;;;;;5007499;28;20472;-64
2023/08/05 02:13:08;;;;;;;9.57;6.77;;;17.10;36.80;;;;;;5004567;28;20833;-63
2023/08/05 02:15:34;;;;;;;9.27;6.50;;;17.20;36.70;;;;;;5006996;28;20883;-63
2023/08/05 02:18:03;;;;;;;11.77;6.60;;;17.20;36.60;;;;;;5002223;28;20490;-64
2023/08/05 02:20:30;;;;;;;11.67;8.10;;;17.20;36.50;;;;;;5007963;28;20980;-64
2023/08/05 02:22:56;;;;;;;9.03;6.83;;;17.30;36.60;;;;;;5006592;28;20467;-63
2023/08/05 02:25:23;;;;;;;10.60;6.50;;;17.30;36.40;;;;;;5003346;28;20817;-64
2023/08/05 02:27:50;;;;;;;9.93;6.93;;;17.30;36.30;;;;;;5006478;28;20486;-64
2023/08/05 02:30:16;;;;;;;9.70;7.20;;;17.30;36.30;;;;;;5020618;23;20464;-62
2023/08/05 02:32:43;;;;;;;10.77;7.33;;;17.30;36.20;;;;;;4983556;28;20481;-64
2023/08/05 02:35:11;;;;;;;12.13;7.53;;;17.30;36.40;;;;;;4984271;28;20462;-64
2023/08/05 02:37:38;;;;;;;13.40;7.70;;;17.30;36.20;;;;;;4986179;28;20484;-64
2023/08/05 02:40:05;;;;;;;10.40;7.63;;;17.30;36.20;;;;;;4985015;28;20469;-64
2023/08/05 02:42:32;;;;;;;13.27;8.80;;;17.30;36.00;;;;;;4985537;28;20990;-65
2023/08/05 02:44:59;;;;;;;14.73;7.80;;;17.30;36.20;;;;;;4988304;28;20484;-65
2023/08/05 02:47:26;;;;;;;10.70;7.00;;;17.30;36.00;;;;;;4985866;28;20480;-65
2023/08/05 02:49:52;;;;;;;12.53;8.20;;;17.30;36.00;;;;;;4985220;28;20471;-65
2023/08/05 02:52:20;;;;;;;9.30;6.83;;;17.30;36.20;;;;;;4983604;28;20479;-65
2023/08/05 02:54:47;;;;;;;11.40;7.20;;;17.30;36.10;;;;;;4985777;28;20461;-64
2023/08/05 02:57:14;;;;;;;17.10;9.80;;;17.30;36.20;;;;;;4984878;28;20501;-64
2023/08/05 02:59:40;;;;;;;15.80;8.33;;;17.30;36.00;;;;;;4987405;28;20494;-64
2023/08/05 03:02:07;;;;;;;12.90;9.07;;;17.30;36.10;;;;;;4985986;28;20488;-64
2023/08/05 03:04:34;;;;;;;11.73;8.73;;;17.30;36.10;;;;;;4980506;28;20489;-65
2023/08/05 03:07:00;;;;;;;16.23;9.07;;;17.30;36.20;;;;;;4983237;28;20484;-65
2023/08/05 03:09:28;;;;;;;13.33;8.60;;;17.30;36.00;;;;;;4986452;28;20999;-66
2023/08/05 03:11:55;;;;;;;17.23;8.43;;;17.30;35.90;;;;;;4984150;28;20469;-65
2023/08/05 03:14:22;;;;;;;12.93;8.00;;;17.30;35.90;;;;;;4984123;28;20461;-65
2023/08/05 03:16:49;;;;;;;20.80;8.60;;;17.30;35.90;;;;;;4987997;28;20465;-66
2023/08/05 03:19:15;;;;;;;12.07;8.13;;;17.30;35.90;;;;;;4984807;28;20467;-65
2023/08/05 03:21:42;;;;;;;12.80;9.17;;;17.30;36.00;;;;;;4983718;28;20465;-65
2023/08/05 03:24:09;;;;;;;13.00;7.57;;;17.20;35.90;;;;;;4982446;28;23417;-65
2023/08/05 03:26:37;;;;;;;13.20;8.47;;;17.20;36.00;;;;;;4989252;28;20499;-65
2023/08/05 03:29:03;;;;;;;13.03;8.33;;;17.20;35.90;;;;;;4990863;28;20472;-65
2023/08/05 03:31:31;;;;;;;12.07;7.70;;;17.20;36.00;;;;;;4982841;28;20484;-65
2023/08/05 03:33:58;;;;;;;10.70;7.20;;;17.20;36.10;;;;;;4982219;28;21309;-65
2023/08/05 03:36:25;;;;;;;13.90;7.07;;;17.10;36.20;;;;;;4987784;28;20470;-65
2023/08/05 03:38:52;;;;;;;15.10;8.50;;;17.20;36.00;;;;;;4985370;28;20491;-66
2023/08/05 03:41:19;;;;;;;14.43;9.30;;;17.10;36.10;;;;;;4983829;28;21026;-64
2023/08/05 03:43:47;;;;;;;11.83;7.90;;;17.10;36.00;;;;;;4986177;28;20468;-65
2023/08/05 03:46:14;;;;;;;11.63;7.97;;;17.10;36.00;;;;;;4989935;28;20472;-64
2023/08/05 03:48:41;;;;;;;12.17;8.30;;;17.10;36.10;;;;;;4986526;28;21239;-64
2023/08/05 03:51:07;;;;;;;10.87;7.73;;;17.10;36.00;;;;;;4986331;28;20465;-65
2023/08/05 03:53:35;;;;;;;11.60;8.40;;;17.00;35.90;;;;;;4984426;28;20465;-64
2023/08/05 03:56:02;;;;;;;11.90;8.13;;;17.00;35.90;;;;;;4979960;28;20549;-65
2023/08/05 03:58:28;;;;;;;14.50;8.70;;;17.00;36.00;;;;;;4990749;28;20499;-65
2023/08/05 04:00:56;;;;;;;13.17;8.60;;;17.00;35.80;;;;;;4977629;28;21020;-65
2023/08/05 04:03:23;;;;;;;12.17;8.43;;;17.00;35.80;;;;;;4981886;28;20468;-65
2023/08/05 04:05:50;;;;;;;13.50;9.13;;;17.00;35.80;;;;;;4985602;28;20512;-65
2023/08/05 04:08:18;;;;;;;13.33;8.80;;;17.00;35.60;;;;;;4984126;28;20512;-65
2023/08/05 04:10:44;;;;;;;15.10;8.73;;;16.90;35.60;;;;;;4981061;28;20502;-65
2023/08/05 04:13:11;;;;;;;12.53;7.80;;;17.00;35.80;;;;;;4983453;28;20465;-65
2023/08/05 04:15:38;;;;;;;12.23;9.00;;;17.00;35.70;;;;;;4983951;28;20493;-64
2023/08/05 04:18:07;;;;;;;13.00;9.30;;;17.00;35.50;;;;;;4984446;28;20482;-65
2023/08/05 04:20:36;;;;;;;12.47;8.40;;;17.00;35.50;;;;;;4990061;28;20576;-65
2023/08/05 04:23:05;;;;;;;12.60;9.63;;;17.00;35.40;;;;;;4988547;28;20474;-65
2023/08/05 04:25:32;;;;;;;16.63;9.87;;;17.00;35.40;;;;;;4988484;28;20489;-65
2023/08/05 04:27:59;;;;;;;14.20;10.73;;;17.00;35.30;;;;;;4987817;28;20515;-65
2023/08/05 04:30:26;;;;;;;12.47;9.30;;;17.00;35.40;;;;;;4985431;28;20465;-65
2023/08/05 04:32:52;;;;;;;14.60;9.87;;;16.90;35.30;;;;;;4988431;28;20464;-65
2023/08/05 04:35:21;;;;;;;16.70;10.37;;;16.90;35.30;;;;;;4990662;28;20464;-65
2023/08/05 04:37:47;;;;;;;16.40;9.70;;;17.00;35.30;;;;;;4988199;28;21031;-64
2023/08/05 04:40:14;;;;;;;15.03;10.40;;;17.00;35.20;;;;;;4991859;28;20468;-65
2023/08/05 04:42:41;;;;;;;15.57;10.77;;;17.00;35.40;;;;;;4991480;28;20566;-64
2023/08/05 04:45:09;;;;;;;14.20;9.80;;;16.90;35.50;;;;;;4991859;28;20484;-64
2023/08/05 04:47:36;;;;;;;17.17;11.60;;;16.90;35.30;;;;;;4989539;28;20485;-65
2023/08/05 04:50:02;;;;;;;13.27;9.70;;;16.90;35.40;;;;;;4994059;28;21129;-65
2023/08/05 04:52:30;;;;;;;12.23;8.80;;;16.90;35.40;;;;;;4990520;28;20460;-65
2023/08/05 04:54:57;;;;;;;15.07;8.97;;;16.90;35.60;;;;;;4985861;28;20461;-65
2023/08/05 04:57:24;;;;;;;14.57;10.20;;;16.90;35.50;;;;;;4989227;28;20499;-65
2023/08/05 04:59:50;;;;;;;13.43;9.17;;;17.00;35.30;;;;;;4988608;28;20491;-64
2023/08/05 05:02:17;;;;;;;19.67;9.83;;;17.00;35.10;;;;;;4985802;28;20480;-65
2023/08/05 05:04:44;;;;;;;14.50;10.33;;;17.10;35.10;;;;;;4985522;28;20558;-65
2023/08/05 05:07:11;;;;;;;15.97;9.80;;;17.10;35.00;;;;;;4986456;28;20484;-66
2023/08/05 05:09:39;;;;;;;13.67;9.93;;;17.20;34.80;;;;;;4989761;28;20471;-65
2023/08/05 05:12:06;;;;;;;13.93;10.23;;;17.20;34.80;;;;;;4994606;28;20467;-63
2023/08/05 05:14:34;;;;;;;12.57;10.23;;;17.20;34.80;;;;;;4989456;28;20635;-63
2023/08/05 05:17:00;;;;;;;15.67;10.80;;;17.30;34.50;;;;;;4989177;28;20492;-65
2023/08/05 05:19:27;;;;;;;13.00;9.50;;;17.30;34.40;;;;;;4989938;28;20472;-65
2023/08/05 05:21:54;;;;;;;14.13;10.00;;;17.30;34.50;;;;;;4983680;28;20556;-63
2023/08/05 05:24:20;;;;;;;14.00;9.97;;;17.40;34.40;;;;;;4987973;28;20484;-66
2023/08/05 05:26:48;;;;;;;14.17;9.63;;;17.40;34.30;;;;;;4992029;28;20824;-65
2023/08/05 05:29:19;;;;;;;13.20;10.40;;;17.40;34.10;;;;;;4986864;28;20472;-64
2023/08/05 05:31:45;;;;;;;14.43;10.03;;;17.50;34.30;;;;;;4991037;28;20563;-63
2023/08/05 05:34:12;;;;;;;19.43;12.00;;;17.50;34.20;;;;;;4987709;28;20457;-64
2023/08/05 05:36:39;;;;;;;13.50;10.37;;;17.50;34.20;;;;;;4989043;28;20835;-63
2023/08/05 05:39:05;;;;;;;13.17;9.73;;;17.60;34.00;;;;;;4988643;28;20468;-63
2023/08/05 05:41:32;;;;;;;12.80;9.30;;;17.70;33.70;;;;;;4990202;28;20465;-66
2023/08/05 05:44:03;;;;;;;16.07;9.50;;;17.70;33.20;;;;;;4989569;28;20464;-64
2023/08/05 05:46:32;;;;;;;14.10;9.57;;;17.80;33.10;;;;;;4987958;28;21011;-66
2023/08/05 05:48:59;;;;;;;14.37;8.77;;;17.80;33.00;;;;;;4987172;28;20485;-65
2023/08/05 05:51:26;;;;;;;13.27;9.13;;;17.80;33.10;;;;;;4992418;28;20478;-65
2023/08/05 05:53:52;;;;;;;12.30;8.70;;;17.80;33.00;;;;;;4988636;28;20467;-66
2023/08/05 05:56:19;;;;;;;14.53;8.50;;;17.80;33.10;;;;;;4986739;28;20460;-65
2023/08/05 05:58:46;;;;;;;14.03;9.70;;;17.80;32.80;;;;;;4989098;28;20488;-64
2023/08/05 06:01:14;;;;;;;14.23;9.40;;;17.80;32.60;;;;;;4990840;28;20473;-64
2023/08/05 06:03:42;;;;;;;12.80;9.23;;;17.90;32.70;;;;;;4987299;28;20535;-64
2023/08/05 06:06:08;;;;;;;13.27;9.73;;;17.90;32.60;;;;;;4985956;28;20481;-64
2023/08/05 06:08:36;;;;;;;13.33;9.13;;;18.10;32.20;;;;;;4989603;28;20489;-64
2023/08/05 06:11:03;;;;;;;14.30;8.87;;;18.10;31.80;;;;;;4989366;28;20465;-64
2023/08/05 06:13:30;;;;;;;12.80;9.00;;;18.20;31.80;;;;;;4986726;28;20493;-65
2023/08/05 06:15:57;;;;;;;14.63;10.17;;;18.30;31.40;;;;;;4988798;28;20460;-64
2023/08/05 06:18:25;;;;;;;11.23;8.70;;;18.40;31.20;;;;;;4990039;28;20491;-64
2023/08/05 06:20:52;;;;;;;14.57;9.90;;;18.50;30.70;;;;;;4991093;28;20977;-64
2023/08/05 06:23:18;;;;;;;13.97;9.33;;;18.70;30.40;;;;;;4986858;28;20467;-65
2023/08/05 06:25:46;;;;;;;11.80;8.53;;;18.90;30.10;;;;;;4988351;28;20499;-64
2023/08/05 06:28:13;;;;;;;13.03;8.10;;;19.00;29.60;;;;;;4987135;28;20484;-64
2023/08/05 06:30:43;;;;;;;12.97;8.33;;;19.10;28.40;;;;;;4988977;28;20888;-65
2023/08/05 06:33:10;;;;;;;10.70;8.40;;;19.30;27.90;;;;;;4987505;28;20567;-65
2023/08/05 06:35:38;;;;;;;11.23;7.80;;;19.20;27.60;;;;;;4985928;28;20938;-63
2023/08/05 06:38:05;;;;;;;14.60;8.33;;;19.20;28.40;;;;;;4987017;28;20476;-63
2023/08/05 06:40:32;;;;;;;11.70;8.40;;;19.10;27.60;;;;;;4990491;28;20453;-62
2023/08/05 06:42:58;;;;;;;12.43;8.43;;;19.00;27.90;;;;;;4985833;28;20472;-62
2023/08/05 06:45:25;;;;;;;9.30;7.70;;;18.90;28.20;;;;;;4989105;28;20480;-62
2023/08/05 06:47:53;;;;;;;11.80;8.53;;;18.80;28.60;;;;;;4989147;28;21005;-62
2023/08/05 06:50:19;;;;;;;15.03;8.50;;;18.70;28.80;;;;;;4989820;28;20471;-63
2023/08/05 06:52:47;;;;;;;13.27;8.77;;;18.60;28.80;;;;;;4986861;28;20493;-63
2023/08/05 06:55:17;;;;;;;12.03;8.43;;;18.60;28.80;;;;;;4989291;28;20460;-63
2023/08/05 06:57:45;;;;;;;12.00;8.70;;;18.60;28.90;;;;;;4988619;28;20551;-63
2023/08/05 07:00:12;;;;;;;12.50;8.67;;;18.50;29.40;;;;;;4989772;28;20457;-63
2023/08/05 07:02:39;;;;;;;16.60;9.10;;;18.50;29.60;;;;;;4991378;28;20473;-63
2023/08/05 07:05:06;;;;;;;10.67;8.43;;;18.50;29.70;;;;;;4987222;28;20481;-63
2023/08/05 07:07:33;;;;;;;11.43;8.37;;;18.50;29.50;;;;;;4986864;28;20488;-63
2023/08/05 07:10:03;;;;;;;12.30;8.43;;;18.40;29.30;;;;;;4982887;28;20465;-63
2023/08/05 07:12:30;;;;;;;10.20;7.97;;;18.40;29.80;;;;;;4988940;28;20480;-63
2023/08/05 07:14:57;;;;;;;13.20;9.03;;;18.30;30.00;;;;;;4986386;28;20460;-63
2023/08/05 07:17:25;;;;;;;12.40;8.27;;;18.30;30.40;;;;;;4989159;28;20484;-63
2023/08/05 07:19:52;;;;;;;15.10;10.30;;;18.40;30.50;;;;;;4985484;28;20461;-63
2023/08/05 07:22:19;;;;;;;12.10;9.10;;;18.40;30.70;;;;;;4989993;28;20456;-63
2023/08/05 07:24:45;;;;;;;13.37;9.30;;;18.40;30.60;;;;;;4992082;28;20845;-63
2023/08/05 07:27:13;;;;;;;11.53;9.30;;;18.40;30.70;;;;;;4987528;28;20503;-63
2023/08/05 07:29:43;;;;;;;11.03;8.17;;;18.40;30.50;;;;;;4982817;28;20471;-64
2023/08/05 07:32:10;;;;;;;14.90;9.30;;;18.50;30.50;;;;;;4983523;28;20495;-64
2023/08/05 07:34:36;;;;;;;11.03;8.10;;;18.50;30.00;;;;;;4984171;28;20495;-64
2023/08/05 07:37:03;;;;;;;12.03;8.50;;;18.60;30.00;;;;;;4981657;28;20484;-64
2023/08/05 07:39:33;;;;;;;12.30;9.30;;;18.60;29.60;;;;;;4982700;28;20462;-65
2023/08/05 07:42:02;;;;;;;13.93;9.23;;;18.60;29.60;;;;;;4987342;28;20471;-65
2023/08/05 07:44:31;;;;;;;15.23;8.57;;;18.60;29.70;;;;;;4987059;28;20457;-65
2023/08/05 07:46:58;;;;;;;12.63;8.87;;;18.70;29.80;;;;;;4983419;28;20510;-63
2023/08/05 07:49:26;;;;;;;10.47;8.63;;;18.80;29.60;;;;;;4982179;28;20556;-63
2023/08/05 07:51:53;;;;;;;10.07;8.17;;;18.90;29.50;;;;;;4984785;28;20487;-63
2023/08/05 07:54:20;;;;;;;8.90;7.47;;;19.00;29.20;;;;;;4982828;28;20568;-64
2023/08/05 07:56:48;;;;;;;12.33;7.60;;;19.30;28.30;;;;;;4985419;28;20528;-64
2023/08/05 07:59:17;;;;;;;10.93;7.73;;;19.70;27.70;;;;;;4985847;28;20639;-64
2023/08/05 08:01:45;;;;;;;10.83;7.87;;;20.40;26.60;;;;;;4979382;28;20476;-64
2023/08/05 08:04:14;;;;;;;11.73;8.10;;;21.40;23.80;;;;;;4980877;28;20984;-64
2023/08/05 08:06:43;;;;;;;10.43;7.50;;;22.10;20.90;;;;;;4981623;28;21329;-63
2023/08/05 08:09:10;;;;;;;10.83;8.03;;;22.60;19.40;;;;;;4982844;28;20473;-66
2023/08/05 08:11:37;;;;;;;9.90;7.27;;;23.90;17.10;;;;;;4985178;28;20485;-63
2023/08/05 08:14:04;;;;;;;7.43;6.20;;;26.30;12.20;;;;;;4983640;28;20472;-63
2023/08/05 08:16:31;;;;;;;10.10;6.23;;;28.50;7.60;;;;;;4982818;28;20949;-63
2023/08/05 08:18:59;;;;;;;6.70;5.60;;;29.80;3.20;;;;;;4981640;28;21017;-63
2023/08/05 08:21:26;;;;;;;7.33;5.97;;;30.30;1.90;;;;;;4985366;28;20471;-63
2023/08/05 08:23:53;;;;;;;6.90;5.33;;;30.60;1.00;;;;;;4984130;28;20476;-64
2023/08/05 08:26:19;;;;;;;7.20;5.63;;;30.90;1.00;;;;;;4983846;28;20489;-64
2023/08/05 08:28:46;;;;;;;8.33;5.97;;;31.40;1.00;;;;;;4984283;28;20493;-64
2023/08/05 08:31:13;;;;;;;9.67;6.53;;;31.20;1.00;;;;;;4984078;28;20485;-64
2023/08/05 08:33:39;;;;;;;6.90;5.20;;;30.50;1.00;;;;;;4984305;28;20483;-64
2023/08/05 08:36:07;;;;;;;6.00;4.67;;;29.60;1.00;;;;;;4983920;28;20479;-64
2023/08/05 08:38:34;;;;;;;8.53;5.60;;;28.70;1.00;;;;;;4982677;28;20485;-64
2023/08/05 08:41:02;;;;;;;9.60;6.33;;;28.00;2.60;;;;;;4980303;28;20859;-64
2023/08/05 08:43:29;;;;;;;7.37;5.40;;;27.30;3.70;;;;;;4985033;28;20981;-64
2023/08/05 08:45:57;;;;;;;9.80;5.40;;;26.80;4.40;;;;;;4983225;28;20485;-64
2023/08/05 08:48:25;;;;;;;10.97;7.40;;;26.30;5.40;;;;;;4981333;28;20490;-64
2023/08/05 08:50:53;;;;;;;9.07;7.40;;;25.80;6.10;;;;;;4981015;28;20472;-64
2023/08/05 08:53:24;;;;;;;8.40;6.30;;;25.40;7.10;;;;;;4983987;28;21002;-65
2023/08/05 08:55:52;;;;;;;6.63;5.33;;;24.90;8.00;;;;;;4986246;28;20457;-64
2023/08/05 08:58:19;;;;;;;9.63;6.70;;;24.60;8.90;;;;;;4981197;28;20483;-64
2023/08/05 09:00:46;;;;;;;8.87;7.50;;;24.20;10.00;;;;;;4989384;28;20830;-63
2023/08/05 09:03:14;;;;;;;8.40;6.50;;;23.90;10.30;;;;;;4984960;28;20980;-63
2023/08/05 09:05:43;;;;;;;8.90;6.70;;;23.70;11.10;;;;;;4989334;28;20488;-64
2023/08/05 09:08:10;;;;;;;7.73;6.10;;;23.60;11.70;;;;;;4990971;28;20491;-64
2023/08/05 09:10:38;;;;;;;8.37;6.00;;;23.70;11.60;;;;;;4987562;28;21039;-63
2023/08/05 09:13:06;;;;;;;7.87;5.87;;;24.00;11.50;;;;;;4997711;28;20463;-63
2023/08/05 09:15:34;;;;;;;9.20;6.50;;;24.20;11.20;;;;;;4985192;28;20987;-63
2023/08/05 09:18:03;;;;;;;8.40;5.50;;;24.40;10.80;;;;;;4986999;28;20585;-64
2023/08/05 09:20:32;;;;;;;6.87;5.33;;;24.60;10.00;;;;;;4985584;28;20949;-63
2023/08/05 09:23:01;;;;;;;8.07;5.80;;;24.80;9.60;;;;;;4986757;28;20469;-63
2023/08/05 09:25:28;;;;;;;9.17;6.07;;;24.90;9.00;;;;;;4989794;28;20904;-63
2023/08/05 09:27:57;;;;;;;6.80;4.43;;;25.00;8.40;;;;;;4986504;28;20484;-63
2023/08/05 09:30:25;;;;;;;7.97;4.77;;;25.10;7.80;;;;;;4986509;28;20502;-63
2023/08/05 09:32:53;;;;;;;7.73;5.10;;;25.10;7.50;;;;;;4987393;28;20461;-63
2023/08/05 09:35:20;;;;;;;7.87;4.70;;;25.10;7.60;;;;;;4988058;28;21055;-63
2023/08/05 09:37:48;;;;;;;6.90;4.93;;;25.00;7.90;;;;;;4991711;28;20847;-63
2023/08/05 09:40:17;;;;;;;7.63;4.47;;;25.00;8.20;;;;;;4986764;28;20464;-63
2023/08/05 09:42:48;;;;;;;8.00;4.40;;;25.00;8.70;;;;;;4983278;28;20465;-63
2023/08/05 09:45:17;;;;;;;6.30;4.50;;;24.90;8.80;;;;;;4988800;28;20464;-65
2023/08/05 09:47:47;;;;;;;7.90;5.10;;;24.80;8.90;;;;;;4985430;28;20523;-64
2023/08/05 09:50:14;;;;;;;6.50;4.70;;;24.80;8.90;;;;;;4985177;28;20468;-63
2023/08/05 09:52:42;;;;;;;7.70;4.60;;;25.00;8.70;;;;;;4990182;28;20464;-63
2023/08/05 09:55:13;;;;;;;7.03;4.80;;;25.50;7.90;;;;;;4990141;28;20839;-63
2023/08/05 10:01:00;;;;;;;6.50;4.50;;;26.50;5.20;;;;;;5024341;28;20459;-64
2023/08/05 10:03:28;;;;;;;6.33;3.50;;;26.80;4.50;;;;;;5022940;28;20459;-65
2023/08/05 10:05:57;;;;;;;7.53;4.40;;;27.40;4.10;;;;;;5022515;28;20494;-65
2023/08/05 10:08:25;;;;;;;6.97;3.50;;;28.40;2.40;;;;;;5026779;28;20483;-63
2023/08/05 10:10:52;;;;;;;7.43;3.90;;;29.20;1.00;;;;;;5023143;28;20467;-65
2023/08/05 10:13:20;;;;;;;9.20;3.13;;;29.60;1.00;;;;;;5022614;28;20464;-65
2023/08/05 10:15:51;;;;;;;4.63;3.17;;;30.20;1.00;;;;;;5020035;28;20464;-66
2023/08/05 10:18:19;;;;;;;6.30;3.37;;;30.80;1.00;;;;;;5024361;28;20483;-65
2023/08/05 10:20:51;;;;;;;6.37;3.40;;;31.10;1.00;;;;;;5024680;28;20468;-65
2023/08/05 10:23:18;;;;;;;5.17;3.00;;;30.90;1.00;;;;;;5028601;28;20493;-65
2023/08/05 10:25:50;;;;;;;7.10;3.57;;;30.50;1.00;;;;;;5026747;28;20554;-66
2023/08/05 10:28:42;;;;;;;6.17;3.20;;;30.20;1.00;;;;;;5025913;28;20498;-65
2023/08/05 10:31:24;;;;;;;5.30;3.10;;;30.00;1.00;;;;;;5021199;28;20547;-66
2023/08/05 10:34:18;;;;;;;5.47;3.20;;;29.90;1.00;;;;;;5020614;28;20516;-67
2023/08/05 10:36:47;;;;;;;5.30;3.37;;;29.60;1.00;;;;;;5024180;28;20472;-65
2023/08/05 10:39:42;;;;;;;5.17;3.33;;;29.10;1.00;;;;;;5023448;28;20467;-65
2023/08/05 10:42:34;;;;;;;5.00;3.00;;;28.80;1.00;;;;;;5026530;28;20471;-65
2023/08/05 10:45:01;;;;;;;5.23;3.07;;;28.60;1.00;;;;;;5017259;28;20459;-66
2023/08/05 10:47:28;;;;;;;4.97;3.30;;;28.40;1.00;;;;;;5022791;28;20487;-65
2023/08/05 10:50:00;;;;;;;6.70;3.20;;;28.20;1.00;;;;;;5025615;28;20466;-66
2023/08/05 10:52:27;;;;;;;5.43;3.63;;;27.90;1.00;;;;;;5020337;28;20462;-65
2023/08/05 10:54:54;;;;;;;6.90;3.07;;;27.50;1.00;;;;;;5016593;28;20472;-67
2023/08/05 10:57:47;;;;;;;7.17;3.20;;;27.40;1.60;;;;;;5020217;28;20486;-64
2023/08/05 11:00:24;;;;;;;5.60;2.90;;;27.30;2.80;;;;;;5020600;28;20463;-65
2023/08/05 11:03:25;;;;;;;8.37;3.03;;;27.40;2.30;;;;;;5021071;28;20870;-67
2023/08/05 11:05:54;;;;;;;4.97;2.50;;;27.30;2.70;;;;;;5020791;28;20577;-66
2023/08/05 11:08:22;;;;;;;4.70;2.80;;;27.20;1.70;;;;;;5020207;28;20510;-65
2023/08/05 11:10:49;;;;;;;5.00;2.97;;;27.10;2.10;;;;;;5023178;28;20454;-65
2023/08/05 11:13:16;;;;;;;5.00;2.27;;;27.10;2.90;;;;;;5025691;28;21378;-66
2023/08/05 11:15:43;;;;;;;8.33;3.03;;;26.90;1.60;;;;;;5017164;28;20459;-65
2023/08/05 11:18:10;;;;;;;4.90;2.90;;;26.90;2.20;;;;;;5020557;28;20826;-65
2023/08/05 11:20:37;;;;;;;5.20;3.10;;;27.10;1.90;;;;;;5021656;28;20490;-65
2023/08/05 11:23:05;;;;;;;4.67;2.90;;;27.20;2.40;;;;;;5020391;28;21294;-65
2023/08/05 11:25:32;;;;;;;6.00;2.63;;;27.30;1.20;;;;;;5020944;28;20482;-65
2023/08/05 11:27:59;;;;;;;4.70;2.73;;;27.30;1.40;;;;;;5022957;28;20489;-65
2023/08/05 11:30:26;;;;;;;4.80;2.17;;;27.20;1.80;;;;;;5016523;28;20978;-65
2023/08/05 11:32:55;;;;;;;4.30;2.63;;;27.10;2.00;;;;;;5018645;28;20474;-65
2023/08/05 11:35:22;;;;;;;6.60;2.17;;;27.00;2.00;;;;;;5023716;28;20471;-65
2023/08/05 11:37:49;;;;;;;4.33;2.10;;;27.10;1.60;;;;;;5023495;28;20486;-65
2023/08/05 11:40:17;;;;;;;5.70;2.30;;;27.00;1.10;;;;;;5021102;28;20467;-66
2023/08/05 11:42:44;;;;;;;4.80;2.37;;;27.10;1.70;;;;;;5021898;28;20831;-65
2023/08/05 11:45:12;;;;;;;5.53;2.70;;;27.20;1.20;;;;;;5023879;28;20466;-66
2023/08/05 11:47:40;;;;;;;5.53;2.60;;;27.30;1.00;;;;;;5019945;28;20495;-66
2023/08/05 11:50:07;;;;;;;5.70;2.87;;;27.40;1.10;;;;;;5022109;28;20471;-67
2023/08/05 11:52:35;;;;;;;7.10;2.80;;;27.40;1.30;;;;;;5024139;28;20467;-67
2023/08/05 11:55:04;;;;;;;4.80;2.30;;;27.30;1.90;;;;;;5027489;28;20466;-67
2023/08/05 11:57:32;;;;;;;6.03;2.83;;;27.20;1.80;;;;;;5022809;28;20474;-67
2023/08/05 12:00:04;;;;;;;5.77;2.77;;;27.10;2.00;;;;;;5025670;28;20455;-66
2023/08/05 12:02:34;;;;;;;5.47;2.40;;;27.00;2.20;;;;;;5024162;28;20482;-66
2023/08/05 12:05:01;;;;;;;5.70;2.70;;;27.00;2.30;;;;;;5021380;28;20459;-67
2023/08/05 12:07:28;;;;;;;5.03;2.30;;;27.00;2.40;;;;;;5022475;28;20859;-66
2023/08/05 12:10:07;;;;;;;4.70;1.80;;;26.90;2.00;;;;;;5021149;28;20459;-66
2023/08/05 12:12:36;;;;;;;4.23;1.40;;;26.80;1.30;;;;;;5023725;28;20463;-65
2023/08/05 12:15:10;;;;;;;6.03;1.93;;;26.70;1.00;;;;;;5019469;28;20470;-66
2023/08/05 12:17:37;;;;;;;4.53;2.00;;;26.60;1.10;;;;;;5019947;28;21087;-66
2023/08/05 12:20:08;;;;;;;5.97;2.60;;;26.60;1.00;;;;;;5020127;28;20546;-66
2023/08/05 12:22:35;;;;;;;4.63;2.20;;;26.40;1.00;;;;;;5020690;28;20493;-66
2023/08/05 12:25:01;;;;;;;3.70;1.80;;;26.40;1.70;;;;;;5021370;28;20471;-66
2023/08/05 12:27:27;;;;;;;3.97;1.83;;;26.30;2.10;;;;;;5021397;28;20490;-66
2023/08/05 12:29:55;;;;;;;3.80;2.03;;;26.30;2.90;;;;;;5022258;28;20201;-66
2023/08/05 12:32:22;;;;;;;5.70;2.10;;;26.20;3.60;;;;;;5022758;28;20476;-66
2023/08/05 12:34:49;;;;;;;4.83;2.47;;;26.20;3.40;;;;;;5025148;28;20471;-66
2023/08/05 12:37:15;;;;;;;4.40;2.07;;;26.10;2.70;;;;;;5022566;28;20490;-66
2023/08/05 12:39:42;;;;;;;5.60;2.80;;;26.10;2.60;;;;;;5021230;28;20462;-66
2023/08/05 12:42:09;;;;;;;5.93;2.70;;;26.00;2.80;;;;;;5028318;28;20461;-66
2023/08/05 12:44:36;;;;;;;5.30;2.27;;;25.90;2.70;;;;;;5024200;28;20513;-66
2023/08/05 12:47:04;;;;;;;4.60;1.80;;;25.80;3.10;;;;;;5023044;28;20847;-66
2023/08/05 12:49:31;;;;;;;3.60;1.70;;;25.60;2.80;;;;;;5024931;28;20485;-65
2023/08/05 12:51:57;;;;;;;5.43;2.20;;;25.50;3.00;;;;;;5027370;28;20473;-66